Terminal Aerodrome Forecast
Issued by NWS

Home | Current Version | Previous Version | Text Only | Print | Product List | Glossary On
Versions: 1 2 3 4 5 6 7 8 9 10 11 12 13 14 15 16
871
FTUS45 KREV 291720
TAFMMH
TAF
KMMH 291720Z 2918/3018 13006KT P6SM FEW060 BKN250
     FM292100 28010KT P6SM VCSH SCT060 BKN200
     FM300300 VRB05KT P6SM SCT050 SCT200=

USA.gov is the U.S. government's official web portal to all federal, state and local government web resources and services.